Terminal Aerodrome Forecast
Issued by NWS

Home | Current Version | Previous Version | Graphics & Text | Print | Product List | Glossary On
Versions: 1 2 3 4 5 6 7 8 9 10 11 12 13 14 15 16 17 18 19 20 21 22
000
FTUS43 KOAX 251740
TAFCDR
TAF
KCDR 251740Z 2518/2618 03015KT 3/4SM -SN BR OVC009
      TEMPO 2518/2522 1/4SM +SN FZFG VV003
     FM252200 03015KT 1/2SM SN FZFG VV005
     FM260300 01010KT 1SM -SN BR OVC008
     FM260900 35009KT 1/2SM FZFG OVC005
     FM261500 05004KT 4SM BR OVC015=

USA.gov is the U.S. government's official web portal to all federal, state and local government web resources and services.